createdAt,value
2016-12-31T11:52:49.894Z,1032.31
2016-12-31T11:57:49.863Z,1032.26
2016-12-31T12:02:49.832Z,1032.15
2016-12-31T12:07:49.801Z,1032.09
2016-12-31T12:12:49.782Z,1032.03
2016-12-31T12:17:49.751Z,1031.95
2016-12-31T12:22:49.723Z,1031.84
2016-12-31T12:27:49.699Z,1031.75
2016-12-31T12:32:49.670Z,1031.72
2016-12-31T12:37:49.649Z,1031.7
2016-12-31T12:42:49.619Z,1031.63
2016-12-31T12:47:49.592Z,1031.48
2016-12-31T12:52:49.563Z,1031.41
2016-12-31T12:57:49.540Z,1031.37
2016-12-31T13:02:49.513Z,1031.38
2016-12-31T13:07:49.490Z,1031.32
2016-12-31T13:12:49.460Z,1031.21
2016-12-31T13:17:49.436Z,1031.22
2016-12-31T13:22:49.407Z,1031.11
2016-12-31T13:27:49.385Z,1031.22
2016-12-31T13:32:49.356Z,1031.04
2016-12-31T13:37:49.332Z,1031.07
2016-12-31T13:42:49.302Z,1030.98
2016-12-31T13:47:49.278Z,1031.08
2016-12-31T13:52:49.256Z,1031.09
2016-12-31T13:57:49.231Z,1031.03
2016-12-31T14:02:49.204Z,1030.97
2016-12-31T14:07:49.181Z,1030.97
2016-12-31T14:12:49.150Z,1030.96
2016-12-31T14:17:49.123Z,1030.96
2016-12-31T14:22:49.096Z,1030.86
2016-12-31T14:27:49.068Z,1030.84
2016-12-31T14:32:49.047Z,1030.82
2016-12-31T14:37:49.015Z,1030.76
2016-12-31T14:42:48.985Z,1030.73
2016-12-31T14:47:48.956Z,1030.6
2016-12-31T14:52:48.927Z,1030.6
2016-12-31T14:57:48.902Z,1030.57
2016-12-31T15:02:48.872Z,1030.45
2016-12-31T15:07:48.847Z,1030.44
2016-12-31T15:12:48.813Z,1030.36
2016-12-31T15:17:48.793Z,1030.3
2016-12-31T15:22:48.757Z,1030.26
2016-12-31T15:27:48.726Z,1030.18
2016-12-31T15:32:48.696Z,1030.13
2016-12-31T15:37:48.667Z,1030.11
2016-12-31T15:42:48.639Z,1030.05
2016-12-31T15:47:48.611Z,1030.05
2016-12-31T15:52:48.576Z,1030.06
2016-12-31T15:57:48.545Z,1030.09
2016-12-31T16:02:48.516Z,1030.05
2016-12-31T16:07:48.480Z,1029.96
2016-12-31T16:12:48.452Z,1029.92
2016-12-31T16:17:48.419Z,1029.88
2016-12-31T16:22:48.387Z,1029.88
2016-12-31T16:27:48.355Z,1029.86
2016-12-31T16:32:48.330Z,1029.86
2016-12-31T16:37:48.293Z,1029.78
2016-12-31T16:42:48.263Z,1029.77
2016-12-31T16:47:48.237Z,1029.74
2016-12-31T16:52:48.209Z,1029.73
2016-12-31T16:57:48.183Z,1029.68
2016-12-31T17:02:48.163Z,1029.61
2016-12-31T17:07:48.142Z,1029.56
2016-12-31T17:12:48.122Z,1029.51
2016-12-31T17:17:48.104Z,1029.5
2016-12-31T17:22:48.087Z,1029.38
2016-12-31T17:27:48.078Z,1029.34
2016-12-31T17:32:48.050Z,1029.3
2016-12-31T17:37:48.033Z,1029.2
2016-12-31T17:42:48.018Z,1029.24
2016-12-31T17:47:47.997Z,1029.22
2016-12-31T17:52:47.980Z,1029.22
2016-12-31T17:57:47.961Z,1029.24
2016-12-31T18:02:47.946Z,1029.24
2016-12-31T18:07:47.932Z,1029.04
2016-12-31T18:12:47.918Z,1028.99
2016-12-31T18:17:47.896Z,1028.95
2016-12-31T18:22:47.879Z,1028.86
2016-12-31T18:27:47.864Z,1028.83
2016-12-31T18:32:47.846Z,1028.76
2016-12-31T18:37:47.829Z,1028.68
2016-12-31T18:42:47.813Z,1028.59
2016-12-31T18:47:47.796Z,1028.53
2016-12-31T18:52:47.778Z,1028.46
2016-12-31T18:57:47.768Z,1028.29
2016-12-31T19:02:47.748Z,1028.24
2016-12-31T19:07:47.731Z,1028.24
2016-12-31T19:12:47.713Z,1028.19
2016-12-31T19:17:47.694Z,1028.12
2016-12-31T19:22:47.678Z,1028.06
2016-12-31T19:27:47.659Z,1028.06
2016-12-31T19:32:47.643Z,1027.98
2016-12-31T19:37:47.625Z,1027.94
2016-12-31T19:42:47.606Z,1027.96
2016-12-31T19:47:47.588Z,1027.89
2016-12-31T19:52:47.570Z,1027.89
2016-12-31T19:57:47.551Z,1027.83
2016-12-31T20:02:47.534Z,1027.72
2016-12-31T20:07:47.516Z,1027.72
2016-12-31T20:12:47.495Z,1027.68
2016-12-31T20:17:47.474Z,1027.61
2016-12-31T20:22:47.453Z,1027.57
2016-12-31T20:27:47.433Z,1027.68
2016-12-31T20:32:47.413Z,1027.52
2016-12-31T20:37:47.391Z,1027.39
2016-12-31T20:42:47.373Z,1027.37
2016-12-31T20:47:47.353Z,1027.36
2016-12-31T20:52:47.333Z,1027.34
2016-12-31T20:57:47.313Z,1027.26
2016-12-31T21:02:47.294Z,1027.26
2016-12-31T21:07:47.277Z,1027.11
2016-12-31T21:12:47.258Z,1027.05
2016-12-31T21:17:47.239Z,1027.01
2016-12-31T21:22:47.221Z,1026.99
2016-12-31T21:27:47.201Z,1026.96
2016-12-31T21:32:47.184Z,1026.93
2016-12-31T21:37:47.165Z,1026.83
2016-12-31T21:42:47.148Z,1026.82
2016-12-31T21:47:47.126Z,1026.72
2016-12-31T21:52:47.107Z,1026.63
2016-12-31T21:57:47.087Z,1026.66
2016-12-31T22:02:47.074Z,1026.59
2016-12-31T22:07:47.048Z,1026.61
2016-12-31T22:12:47.027Z,1026.55
2016-12-31T22:17:47.010Z,1026.48
2016-12-31T22:22:46.990Z,1026.39
2016-12-31T22:27:46.968Z,1026.46
2016-12-31T22:32:46.954Z,1026.32
2016-12-31T22:37:46.930Z,1026.19
2016-12-31T22:42:46.912Z,1026.14
2016-12-31T22:47:46.893Z,1026.12
2016-12-31T22:52:46.869Z,1026.07
2016-12-31T22:57:46.851Z,1025.97
2016-12-31T23:02:46.829Z,1025.88
2016-12-31T23:07:46.808Z,1025.78
2016-12-31T23:12:46.784Z,1025.72
2016-12-31T23:17:46.761Z,1025.67
2016-12-31T23:22:46.737Z,1025.58
2016-12-31T23:27:46.712Z,1025.58
2016-12-31T23:32:46.688Z,1025.51
2016-12-31T23:37:46.664Z,1025.43
2016-12-31T23:42:46.635Z,1025.33
2016-12-31T23:47:46.612Z,1025.3
2016-12-31T23:52:46.583Z,1025.26
2016-12-31T23:57:46.557Z,1025.15
